createdAt,value
2024-02-13T00:00:04.843Z,100.00
2024-02-13T00:03:32.572Z,100.00
2024-02-13T00:06:56.395Z,100.00
2024-02-13T00:10:19.338Z,100.00
2024-02-13T00:13:40.943Z,100.00
2024-02-13T00:17:02.607Z,100.00
2024-02-13T00:20:24.001Z,100.00
2024-02-13T00:23:45.872Z,100.00
2024-02-13T00:27:09.019Z,100.00
2024-02-13T00:30:32.583Z,100.00
2024-02-13T00:33:56.373Z,100.00
2024-02-13T00:37:18.226Z,100.00
2024-02-13T00:40:40.063Z,100.00
2024-02-13T00:44:03.101Z,100.00
2024-02-13T00:47:25.266Z,100.00
2024-02-13T00:50:48.118Z,100.00
2024-02-13T00:54:14.928Z,100.00
2024-02-13T00:57:36.569Z,100.00
2024-02-13T01:00:59.761Z,100.00
2024-02-13T01:04:22.438Z,100.00
2024-02-13T01:07:44.208Z,100.00
2024-02-13T01:11:05.750Z,100.00
2024-02-13T01:14:27.434Z,100.00
2024-02-13T01:17:50.658Z,100.00
2024-02-13T01:21:15.477Z,100.00
2024-02-13T01:24:37.374Z,100.00
2024-02-13T01:27:58.699Z,100.00
2024-02-13T01:31:19.977Z,100.00
2024-02-13T01:34:43.529Z,100.00
2024-02-13T01:38:10.939Z,100.00
2024-02-13T01:41:32.606Z,100.00
2024-02-13T01:44:54.924Z,100.00
2024-02-13T01:48:19.150Z,100.00
2024-02-13T01:51:42.821Z,100.00
2024-02-13T01:55:05.117Z,100.00
2024-02-13T01:58:27.422Z,100.00
2024-02-13T02:01:49.621Z,100.00
2024-02-13T02:05:12.670Z,100.00
2024-02-13T02:08:36.146Z,100.00
2024-02-13T02:11:58.389Z,100.00
2024-02-13T02:15:19.997Z,100.00
2024-02-13T02:18:42.307Z,100.00
2024-02-13T02:22:04.671Z,100.00
2024-02-13T02:25:27.530Z,100.00
2024-02-13T02:28:48.847Z,100.00
2024-02-13T02:32:10.510Z,100.00
2024-02-13T02:35:32.289Z,100.00
2024-02-13T02:38:55.078Z,100.00
2024-02-13T02:42:18.181Z,100.00
2024-02-13T02:45:40.126Z,100.00
2024-02-13T02:49:01.608Z,100.00
2024-02-13T02:52:23.013Z,100.00
2024-02-13T02:55:44.425Z,100.00
2024-02-13T02:59:07.265Z,100.00
2024-02-13T03:02:28.609Z,100.00
2024-02-13T03:05:51.706Z,100.00
2024-02-13T03:09:13.657Z,100.00
2024-02-13T03:12:36.573Z,100.00
2024-02-13T03:15:59.738Z,100.00
2024-02-13T03:19:21.382Z,100.00
2024-02-13T03:22:43.300Z,100.00
2024-02-13T03:26:06.032Z,100.00
2024-02-13T03:29:28.231Z,100.00
2024-02-13T03:32:51.136Z,100.00
2024-02-13T03:36:17.890Z,100.00
2024-02-13T03:39:39.802Z,100.00
2024-02-13T03:43:01.398Z,100.00
2024-02-13T03:46:22.842Z,100.00
2024-02-13T03:49:45.676Z,100.00
2024-02-13T03:53:07.537Z,100.00
2024-02-13T03:56:28.996Z,100.00
2024-02-13T03:59:50.365Z,100.00
2024-02-13T04:03:12.555Z,100.00
2024-02-13T04:06:36.415Z,100.00
2024-02-13T04:09:58.092Z,100.00
2024-02-13T04:13:19.394Z,100.00
2024-02-13T04:16:40.942Z,100.00
2024-02-13T04:20:04.397Z,100.00
2024-02-13T04:23:28.482Z,100.00
2024-02-13T04:26:51.673Z,100.00
2024-02-13T04:30:14.131Z,100.00
2024-02-13T04:33:35.563Z,100.00
2024-02-13T04:36:57.280Z,100.00
2024-02-13T04:40:20.568Z,100.00
2024-02-13T04:43:44.469Z,100.00
2024-02-13T04:47:06.713Z,100.00
2024-02-13T04:50:29.130Z,100.00
2024-02-13T04:53:51.006Z,100.00
2024-02-13T04:57:14.237Z,100.00
2024-02-13T05:00:38.276Z,100.00
2024-02-13T05:04:22.790Z,100.00
2024-02-13T05:07:46.064Z,100.00
2024-02-13T05:11:08.241Z,100.00
2024-02-13T05:14:31.876Z,100.00
2024-02-13T05:17:53.572Z,100.00
2024-02-13T05:21:16.880Z,100.00
2024-02-13T05:24:40.286Z,100.00
2024-02-13T05:28:01.810Z,100.00
2024-02-13T05:31:24.524Z,100.00
2024-02-13T05:34:45.997Z,100.00
2024-02-13T05:38:07.992Z,100.00
2024-02-13T05:41:29.341Z,100.00
2024-02-13T05:44:51.470Z,100.00
2024-02-13T05:48:15.011Z,100.00
2024-02-13T05:51:36.665Z,100.00
2024-02-13T05:54:59.379Z,100.00
2024-02-13T05:58:21.880Z,100.00
2024-02-13T06:01:43.819Z,100.00
2024-02-13T06:05:08.021Z,100.00
2024-02-13T06:08:29.641Z,100.00
2024-02-13T06:11:51.461Z,100.00
2024-02-13T06:15:13.483Z,100.00
2024-02-13T06:18:35.001Z,100.00
2024-02-13T06:21:58.027Z,100.00
2024-02-13T06:25:19.456Z,100.00
2024-02-13T06:28:41.392Z,100.00
2024-02-13T06:32:03.275Z,100.00
2024-02-13T06:35:24.829Z,100.00
2024-02-13T06:38:47.526Z,100.00
2024-02-13T06:42:09.478Z,100.00
2024-02-13T06:45:31.906Z,100.00
2024-02-13T06:48:55.075Z,100.00
2024-02-13T06:52:16.520Z,100.00
2024-02-13T06:55:39.145Z,100.00
2024-02-13T06:59:00.414Z,100.00
2024-02-13T07:02:21.719Z,100.00
2024-02-13T07:05:43.072Z,100.00
2024-02-13T07:09:06.521Z,100.00
2024-02-13T07:12:30.166Z,100.00
2024-02-13T07:15:51.741Z,100.00
2024-02-13T07:19:13.662Z,100.00
2024-02-13T07:22:35.175Z,100.00
2024-02-13T07:25:56.381Z,100.00
2024-02-13T07:29:20.255Z,100.00
2024-02-13T07:32:41.996Z,100.00
2024-02-13T07:36:03.819Z,100.00
2024-02-13T07:39:25.555Z,100.00
2024-02-13T07:42:46.925Z,100.00
2024-02-13T07:46:10.852Z,100.00
2024-02-13T07:49:33.591Z,100.00
2024-02-13T07:52:55.626Z,100.00
2024-02-13T07:56:19.829Z,100.00
2024-02-13T07:59:41.571Z,100.00
2024-02-13T08:03:05.009Z,100.00
2024-02-13T08:06:26.652Z,100.00
2024-02-13T08:09:48.567Z,100.00
2024-02-13T08:13:10.722Z,100.00
2024-02-13T08:16:32.198Z,100.00
2024-02-13T08:19:55.365Z,100.00
2024-02-13T08:23:17.000Z,100.00
2024-02-13T08:26:39.158Z,100.00
2024-02-13T08:30:00.912Z,100.00
2024-02-13T08:33:22.820Z,100.00
2024-02-13T08:36:46.413Z,100.00
2024-02-13T08:40:08.951Z,100.00
2024-02-13T08:43:30.249Z,100.00
2024-02-13T08:46:51.614Z,100.00
2024-02-13T08:50:14.209Z,100.00
2024-02-13T08:53:37.277Z,100.00
2024-02-13T08:56:59.145Z,100.00
2024-02-13T09:00:21.664Z,100.00
2024-02-13T09:03:43.736Z,100.00
2024-02-13T09:07:05.747Z,100.00
2024-02-13T09:10:28.651Z,100.00
2024-02-13T09:13:50.171Z,100.00
2024-02-13T09:17:11.953Z,100.00
2024-02-13T09:20:33.719Z,100.00
2024-02-13T09:23:55.658Z,100.00
2024-02-13T09:27:19.629Z,100.00
2024-02-13T09:30:41.196Z,100.00
2024-02-13T09:34:03.149Z,100.00
2024-02-13T09:37:26.606Z,100.00
2024-02-13T09:40:48.967Z,100.00
2024-02-13T09:44:13.992Z,100.00
2024-02-13T09:47:35.966Z,100.00
2024-02-13T09:50:59.534Z,100.00
2024-02-13T09:54:22.711Z,100.00
2024-02-13T09:57:44.175Z,99.46
2024-02-13T10:01:08.825Z,99.38
2024-02-13T10:04:31.073Z,99.23
2024-02-13T10:07:52.808Z,97.61
2024-02-13T10:11:16.658Z,97.63
2024-02-13T10:14:38.335Z,96.46
2024-02-13T10:18:02.343Z,95.72
2024-02-13T10:21:27.677Z,94.66
2024-02-13T10:24:55.520Z,94.17
2024-02-13T10:28:20.614Z,93.48
2024-02-13T10:31:43.829Z,92.66
2024-02-13T10:35:10.790Z,92.82
2024-02-13T10:38:34.744Z,91.04
2024-02-13T10:41:59.424Z,90.32
2024-02-13T10:45:24.303Z,90.86
2024-02-13T10:48:53.207Z,86.79
2024-02-13T10:52:16.482Z,86.06
2024-02-13T10:55:41.995Z,85.50
2024-02-13T10:59:05.102Z,86.18
2024-02-13T11:02:27.906Z,86.92
2024-02-13T11:05:49.635Z,83.39
2024-02-13T11:09:14.377Z,83.15
2024-02-13T11:12:37.212Z,83.99
2024-02-13T11:15:59.197Z,82.52
2024-02-13T11:19:22.083Z,83.48
2024-02-13T11:22:52.505Z,85.16
2024-02-13T11:26:20.201Z,85.33
2024-02-13T11:29:42.593Z,84.52
2024-02-13T11:33:07.435Z,83.64
2024-02-13T11:36:30.838Z,83.29
2024-02-13T11:39:53.021Z,81.70
2024-02-13T11:43:25.290Z,81.45
2024-02-13T11:46:53.574Z,81.38
2024-02-13T11:50:15.580Z,81.26
2024-02-13T11:53:37.138Z,81.20
2024-02-13T11:56:58.492Z,82.52
2024-02-13T12:00:22.840Z,81.19
2024-02-13T12:03:44.550Z,81.00
2024-02-13T12:07:07.394Z,80.60
2024-02-13T12:10:29.340Z,80.23
2024-02-13T12:13:51.867Z,81.21
2024-02-13T12:17:15.439Z,80.82
2024-02-13T12:20:37.086Z,81.93
2024-02-13T12:24:02.590Z,80.63
2024-02-13T12:27:25.584Z,81.06
2024-02-13T12:30:48.756Z,79.84
2024-02-13T12:34:11.929Z,79.53
2024-02-13T12:37:33.301Z,79.05
2024-02-13T12:40:56.644Z,79.71
2024-02-13T12:44:18.515Z,80.13
2024-02-13T12:47:40.688Z,80.04
2024-02-13T12:51:05.638Z,78.43
2024-02-13T12:54:28.905Z,77.72
2024-02-13T12:57:51.436Z,77.65
2024-02-13T13:01:13.059Z,76.06
2024-02-13T13:04:34.717Z,76.71
2024-02-13T13:08:00.569Z,77.62
2024-02-13T13:11:23.634Z,76.00
2024-02-13T13:14:47.969Z,74.39
2024-02-13T13:18:15.815Z,74.15
2024-02-13T13:21:41.141Z,73.74
2024-02-13T13:25:10.819Z,72.80
2024-02-13T13:28:33.383Z,73.55
2024-02-13T13:31:54.990Z,74.06
2024-02-13T13:35:21.308Z,73.95
2024-02-13T13:38:44.429Z,73.69
2024-02-13T13:42:10.861Z,72.16
2024-02-13T13:45:32.514Z,72.98
2024-02-13T13:48:54.044Z,72.13
2024-02-13T13:52:15.865Z,73.35
2024-02-13T13:55:37.479Z,71.24
2024-02-13T13:59:00.521Z,71.18
2024-02-13T14:02:22.002Z,71.48
2024-02-13T14:05:45.292Z,71.77
2024-02-13T14:09:08.991Z,71.96
2024-02-13T14:12:30.961Z,70.38
2024-02-13T14:15:53.799Z,70.00
2024-02-13T14:19:15.351Z,68.47
2024-02-13T14:22:38.408Z,68.95
2024-02-13T14:25:59.928Z,70.20
2024-02-13T14:29:21.309Z,69.72
2024-02-13T14:32:45.054Z,70.02
2024-02-13T14:36:07.049Z,70.60
2024-02-13T14:39:29.225Z,70.23
2024-02-13T14:42:51.119Z,70.13
2024-02-13T14:46:12.941Z,69.68
2024-02-13T14:49:36.047Z,70.57
2024-02-13T14:52:57.805Z,71.15
2024-02-13T14:56:20.427Z,69.96
2024-02-13T14:59:41.978Z,70.14
2024-02-13T15:03:03.739Z,70.25
2024-02-13T15:06:26.308Z,70.66
2024-02-13T15:09:49.443Z,70.95
2024-02-13T15:13:12.808Z,70.40
2024-02-13T15:16:34.386Z,70.50
2024-02-13T15:19:56.708Z,71.31
2024-02-13T15:23:20.271Z,70.75
2024-02-13T15:26:41.718Z,70.65
2024-02-13T15:30:05.940Z,70.62
2024-02-13T15:33:27.399Z,70.98
2024-02-13T15:37:02.590Z,71.69
2024-02-13T15:40:43.195Z,71.38
2024-02-13T15:44:22.128Z,71.04
2024-02-13T15:47:44.294Z,72.17
2024-02-13T15:51:07.383Z,72.43
2024-02-13T15:54:31.914Z,72.88
2024-02-13T15:57:54.562Z,72.49
2024-02-13T16:01:18.474Z,73.28
2024-02-13T16:04:40.492Z,73.01
2024-02-13T16:08:02.194Z,73.37
2024-02-13T16:11:23.625Z,73.66
2024-02-13T16:14:47.827Z,73.50
2024-02-13T16:18:10.072Z,73.51
2024-02-13T16:21:31.896Z,74.42
2024-02-13T16:24:54.817Z,74.29
2024-02-13T16:28:16.640Z,74.23
2024-02-13T16:31:39.683Z,74.88
2024-02-13T16:35:01.065Z,74.60
2024-02-13T16:38:22.696Z,75.08
2024-02-13T16:41:45.495Z,75.97
2024-02-13T16:45:08.241Z,76.50
2024-02-13T16:48:31.115Z,77.09
2024-02-13T16:51:53.247Z,77.88
2024-02-13T16:55:16.002Z,77.87
2024-02-13T16:58:38.043Z,78.16
2024-02-13T17:01:59.589Z,78.00
2024-02-13T17:05:23.600Z,78.45
2024-02-13T17:08:47.423Z,78.36
2024-02-13T17:12:09.532Z,78.64
2024-02-13T17:15:31.307Z,79.47
2024-02-13T17:18:52.665Z,79.25
2024-02-13T17:22:15.883Z,79.49
2024-02-13T17:25:37.636Z,79.29
2024-02-13T17:29:00.239Z,79.96
2024-02-13T17:32:23.191Z,79.61
2024-02-13T17:35:44.874Z,79.59
2024-02-13T17:39:10.835Z,80.03
2024-02-13T17:42:34.118Z,80.81
2024-02-13T17:45:55.880Z,80.01
2024-02-13T17:49:18.024Z,80.53
2024-02-13T17:52:39.985Z,80.78
2024-02-13T17:56:03.128Z,81.58
2024-02-13T17:59:25.329Z,82.04
2024-02-13T18:02:46.683Z,82.31
2024-02-13T18:06:08.771Z,82.36
2024-02-13T18:09:30.083Z,82.95
2024-02-13T18:12:53.087Z,82.99
2024-02-13T18:16:14.414Z,82.80
2024-02-13T18:19:35.739Z,83.00
2024-02-13T18:22:58.234Z,82.28
2024-02-13T18:26:22.984Z,82.29
2024-02-13T18:29:46.479Z,82.41
2024-02-13T18:33:09.148Z,82.85
2024-02-13T18:36:33.504Z,82.71
2024-02-13T18:39:54.788Z,83.40
2024-02-13T18:43:16.227Z,83.02
2024-02-13T18:46:43.130Z,82.65
2024-02-13T18:50:05.519Z,83.27
2024-02-13T18:53:31.502Z,82.41
2024-02-13T18:56:54.132Z,82.63
2024-02-13T19:00:17.341Z,82.73
2024-02-13T19:03:40.318Z,82.91
2024-02-13T19:07:01.875Z,81.87
2024-02-13T19:10:23.476Z,82.99
2024-02-13T19:13:45.375Z,82.38
2024-02-13T19:17:07.443Z,82.64
2024-02-13T19:20:30.387Z,82.97
2024-02-13T19:23:51.938Z,82.75
2024-02-13T19:27:13.866Z,82.40
2024-02-13T19:30:36.373Z,82.11
2024-02-13T19:33:57.884Z,82.12
2024-02-13T19:37:21.047Z,82.46
2024-02-13T19:40:43.161Z,82.47
2024-02-13T19:44:04.979Z,81.79
2024-02-13T19:47:26.520Z,82.63
2024-02-13T19:50:48.470Z,82.50
2024-02-13T19:54:11.893Z,81.95
2024-02-13T19:57:33.820Z,81.59
2024-02-13T20:00:56.120Z,81.78
2024-02-13T20:04:18.264Z,81.61
2024-02-13T20:07:39.923Z,81.58
2024-02-13T20:11:04.907Z,82.15
2024-02-13T20:14:26.816Z,81.87
2024-02-13T20:17:48.658Z,81.73
2024-02-13T20:21:11.396Z,81.61
2024-02-13T20:24:33.892Z,82.00
2024-02-13T20:27:58.392Z,82.08
2024-02-13T20:31:20.471Z,82.25
2024-02-13T20:34:42.932Z,83.03
2024-02-13T20:38:05.392Z,83.35
2024-02-13T20:41:26.582Z,84.18
2024-02-13T20:44:51.537Z,84.46
2024-02-13T20:48:13.188Z,85.07
2024-02-13T20:51:36.593Z,85.45
2024-02-13T20:54:58.268Z,85.71
2024-02-13T20:58:19.711Z,85.75
2024-02-13T21:01:43.485Z,85.92
2024-02-13T21:05:06.161Z,86.86
2024-02-13T21:08:27.652Z,87.11
2024-02-13T21:11:49.587Z,87.41
2024-02-13T21:15:13.727Z,87.96
2024-02-13T21:18:36.775Z,88.37
2024-02-13T21:22:15.693Z,88.82
2024-02-13T21:25:37.253Z,88.45
2024-02-13T21:28:59.589Z,89.06
2024-02-13T21:32:22.317Z,88.77
2024-02-13T21:35:45.186Z,89.41
2024-02-13T21:39:09.068Z,89.63
2024-02-13T21:42:31.266Z,91.47
2024-02-13T21:45:53.169Z,91.38
2024-02-13T21:49:14.690Z,91.33
2024-02-13T21:52:37.782Z,91.83
2024-02-13T21:55:59.058Z,91.54
2024-02-13T21:59:21.055Z,91.58
2024-02-13T22:02:42.757Z,91.91
2024-02-13T22:06:04.427Z,91.64
2024-02-13T22:09:28.052Z,92.47
2024-02-13T22:12:49.575Z,91.69
2024-02-13T22:16:10.938Z,93.14
2024-02-13T22:19:32.327Z,91.90
2024-02-13T22:22:53.880Z,92.28
2024-02-13T22:26:16.388Z,92.91
2024-02-13T22:29:37.716Z,92.63
2024-02-13T22:33:00.716Z,93.63
2024-02-13T22:36:23.961Z,93.73
2024-02-13T22:39:45.516Z,93.81
2024-02-13T22:43:08.399Z,93.92
2024-02-13T22:46:29.589Z,94.24
2024-02-13T22:49:50.972Z,94.45
2024-02-13T22:53:12.258Z,94.85
2024-02-13T22:56:33.589Z,95.19
2024-02-13T22:59:58.478Z,95.45
2024-02-13T23:03:20.534Z,95.96
2024-02-13T23:06:42.939Z,95.98
2024-02-13T23:10:05.173Z,95.87
2024-02-13T23:13:32.414Z,95.65
2024-02-13T23:17:00.089Z,95.69
2024-02-13T23:20:22.388Z,95.49
2024-02-13T23:23:43.728Z,96.00
2024-02-13T23:27:05.290Z,96.44
2024-02-13T23:30:28.229Z,96.23
2024-02-13T23:33:51.268Z,96.40
2024-02-13T23:37:12.953Z,97.07
2024-02-13T23:40:34.437Z,96.94
2024-02-13T23:43:55.753Z,96.64
2024-02-13T23:47:17.807Z,97.23
2024-02-13T23:50:40.647Z,97.33
2024-02-13T23:54:01.941Z,97.97
2024-02-13T23:57:23.546Z,98.26
